sensor_id;sensor_type;location;lat;lon;timestamp;pressure;altitude;pressure_sealevel;temperature;humidity
75759;BME280;64371;47.566;19.086;2023-06-04T00:03:02;100698.84;;;12.98;62.42
75759;BME280;64371;47.566;19.086;2023-06-04T00:06:04;100701.41;;;13.03;61.97
75759;BME280;64371;47.566;19.086;2023-06-04T00:09:07;100698.47;;;12.86;62.19
75759;BME280;64371;47.566;19.086;2023-06-04T00:12:09;100713.91;;;12.79;61.84
75759;BME280;64371;47.566;19.086;2023-06-04T00:15:13;100714.22;;;12.78;61.41
75759;BME280;64371;47.566;19.086;2023-06-04T00:18:15;100706.28;;;12.78;61.19
75759;BME280;64371;47.566;19.086;2023-06-04T00:21:18;100706.19;;;12.64;61.00
75759;BME280;64371;47.566;19.086;2023-06-04T00:24:20;100701.88;;;12.49;62.58
75759;BME280;64371;47.566;19.086;2023-06-04T00:27:23;100697.53;;;12.58;62.54
75759;BME280;64371;47.566;19.086;2023-06-04T00:30:25;100692.16;;;12.45;63.11
75759;BME280;64371;47.566;19.086;2023-06-04T00:33:27;100702.25;;;12.38;63.55
75759;BME280;64371;47.566;19.086;2023-06-04T00:36:30;100699.41;;;12.34;63.14
75759;BME280;64371;47.566;19.086;2023-06-04T00:39:33;100696.63;;;12.21;63.13
75759;BME280;64371;47.566;19.086;2023-06-04T00:42:36;100694.25;;;12.19;62.79
75759;BME280;64371;47.566;19.086;2023-06-04T00:45:40;100683.78;;;12.09;62.74
75759;BME280;64371;47.566;19.086;2023-06-04T00:48:49;100693.88;;;12.31;62.53
75759;BME280;64371;47.566;19.086;2023-06-04T00:51:52;100701.81;;;12.31;62.90
75759;BME280;64371;47.566;19.086;2023-06-04T00:54:54;100697.91;;;12.23;62.78
75759;BME280;64371;47.566;19.086;2023-06-04T00:57:57;100683.34;;;12.26;61.96
75759;BME280;64371;47.566;19.086;2023-06-04T01:01:02;100686.34;;;12.19;62.75
75759;BME280;64371;47.566;19.086;2023-06-04T01:04:11;100689.72;;;12.25;61.66
75759;BME280;64371;47.566;19.086;2023-06-04T01:07:15;100693.16;;;12.25;62.76
75759;BME280;64371;47.566;19.086;2023-06-04T01:10:18;100692.06;;;12.26;62.19
75759;BME280;64371;47.566;19.086;2023-06-04T01:13:21;100691.75;;;12.33;62.84
75759;BME280;64371;47.566;19.086;2023-06-04T01:16:25;100697.75;;;12.38;63.17
75759;BME280;64371;47.566;19.086;2023-06-04T01:26:00;100694.31;;;12.38;68.41
75759;BME280;64371;47.566;19.086;2023-06-04T01:29:05;100692.88;;;12.27;68.96
75759;BME280;64371;47.566;19.086;2023-06-04T01:32:08;100690.06;;;12.18;68.80
75759;BME280;64371;47.566;19.086;2023-06-04T01:35:11;100694.56;;;12.18;69.44
75759;BME280;64371;47.566;19.086;2023-06-04T01:38:14;100686.84;;;12.21;69.02
75759;BME280;64371;47.566;19.086;2023-06-04T01:41:17;100675.38;;;12.07;68.71
75759;BME280;64371;47.566;19.086;2023-06-04T01:44:20;100694.25;;;12.19;69.60
75759;BME280;64371;47.566;19.086;2023-06-04T01:47:22;100694.81;;;12.16;69.02
75759;BME280;64371;47.566;19.086;2023-06-04T01:50:24;100685.84;;;12.17;68.91
75759;BME280;64371;47.566;19.086;2023-06-04T01:53:27;100690.22;;;12.27;68.74
75759;BME280;64371;47.566;19.086;2023-06-04T01:56:29;100692.13;;;12.21;68.23
75759;BME280;64371;47.566;19.086;2023-06-04T01:59:32;100686.56;;;12.23;68.62
75759;BME280;64371;47.566;19.086;2023-06-04T02:02:36;100685.53;;;12.19;68.35
75759;BME280;64371;47.566;19.086;2023-06-04T02:05:39;100689.44;;;12.26;68.29
75759;BME280;64371;47.566;19.086;2023-06-04T02:08:42;100686.19;;;12.11;68.46
75759;BME280;64371;47.566;19.086;2023-06-04T02:11:44;100686.13;;;12.16;68.04
75759;BME280;64371;47.566;19.086;2023-06-04T02:14:47;100709.28;;;12.24;67.71
75759;BME280;64371;47.566;19.086;2023-06-04T02:17:49;100708.88;;;12.12;67.66
75759;BME280;64371;47.566;19.086;2023-06-04T02:20:56;100704.78;;;12.24;67.65
75759;BME280;64371;47.566;19.086;2023-06-04T02:23:58;100704.78;;;12.48;66.38
75759;BME280;64371;47.566;19.086;2023-06-04T02:27:01;100699.38;;;12.58;65.53
75759;BME280;64371;47.566;19.086;2023-06-04T02:30:04;100703.94;;;12.52;66.16
75759;BME280;64371;47.566;19.086;2023-06-04T02:33:08;100700.09;;;12.45;66.79
75759;BME280;64371;47.566;19.086;2023-06-04T02:36:12;100707.94;;;12.50;66.99
75759;BME280;64371;47.566;19.086;2023-06-04T02:39:15;100712.31;;;12.36;68.79
75759;BME280;64371;47.566;19.086;2023-06-04T02:42:18;100715.75;;;12.36;69.79
75759;BME280;64371;47.566;19.086;2023-06-04T02:45:21;100717.72;;;12.26;70.02
75759;BME280;64371;47.566;19.086;2023-06-04T02:48:23;100707.78;;;12.18;70.47
75759;BME280;64371;47.566;19.086;2023-06-04T02:51:26;100710.22;;;12.09;71.10
75759;BME280;64371;47.566;19.086;2023-06-04T02:54:30;100706.78;;;12.09;71.53
75759;BME280;64371;47.566;19.086;2023-06-04T02:57:33;100699.50;;;12.01;71.33
75759;BME280;64371;47.566;19.086;2023-06-04T03:00:35;100710.00;;;12.06;71.10
75759;BME280;64371;47.566;19.086;2023-06-04T03:03:40;100708.00;;;11.92;70.92
75759;BME280;64371;47.566;19.086;2023-06-04T03:06:43;100708.00;;;11.92;70.96
75759;BME280;64371;47.566;19.086;2023-06-04T03:09:49;100714.09;;;11.93;70.65
75759;BME280;64371;47.566;19.086;2023-06-04T03:12:52;100704.72;;;12.06;70.42
75759;BME280;64371;47.566;19.086;2023-06-04T03:15:54;100708.63;;;12.13;70.18
75759;BME280;64371;47.566;19.086;2023-06-04T03:18:57;100704.34;;;12.17;70.82
75759;BME280;64371;47.566;19.086;2023-06-04T03:22:00;100712.59;;;12.11;72.09
75759;BME280;64371;47.566;19.086;2023-06-04T03:25:03;100713.94;;;12.08;71.47
75759;BME280;64371;47.566;19.086;2023-06-04T03:28:06;100715.69;;;12.18;71.23
75759;BME280;64371;47.566;19.086;2023-06-04T03:31:08;100719.94;;;12.14;71.73
75759;BME280;64371;47.566;19.086;2023-06-04T03:34:11;100713.28;;;12.21;71.27
75759;BME280;64371;47.566;19.086;2023-06-04T03:37:14;100713.56;;;12.20;72.69
75759;BME280;64371;47.566;19.086;2023-06-04T03:40:16;100719.13;;;12.18;73.04
75759;BME280;64371;47.566;19.086;2023-06-04T03:43:21;100724.13;;;12.20;72.36
75759;BME280;64371;47.566;19.086;2023-06-04T03:46:27;100715.50;;;12.09;72.36
75759;BME280;64371;47.566;19.086;2023-06-04T03:49:34;100726.34;;;12.36;71.32
75759;BME280;64371;47.566;19.086;2023-06-04T03:52:36;100731.41;;;12.56;69.84
75759;BME280;64371;47.566;19.086;2023-06-04T03:55:40;100739.09;;;12.77;68.21
75759;BME280;64371;47.566;19.086;2023-06-04T03:58:43;100741.66;;;12.82;67.32
75759;BME280;64371;47.566;19.086;2023-06-04T04:01:46;100745.16;;;12.77;66.53
75759;BME280;64371;47.566;19.086;2023-06-04T04:04:50;100746.19;;;12.57;67.93
75759;BME280;64371;47.566;19.086;2023-06-04T04:07:52;100743.78;;;12.61;68.17
75759;BME280;64371;47.566;19.086;2023-06-04T04:10:59;100739.53;;;12.84;67.54
75759;BME280;64371;47.566;19.086;2023-06-04T04:14:02;100750.28;;;12.92;66.63
75759;BME280;64371;47.566;19.086;2023-06-04T04:17:05;100750.13;;;13.07;65.67
75759;BME280;64371;47.566;19.086;2023-06-04T04:20:07;100754.00;;;13.15;65.51
75759;BME280;64371;47.566;19.086;2023-06-04T04:23:12;100763.72;;;13.19;65.04
75759;BME280;64371;47.566;19.086;2023-06-04T04:26:18;100763.88;;;13.04;66.22
75759;BME280;64371;47.566;19.086;2023-06-04T04:29:23;100762.06;;;13.23;62.75
75759;BME280;64371;47.566;19.086;2023-06-04T04:32:27;100756.78;;;13.23;61.44
75759;BME280;64371;47.566;19.086;2023-06-04T04:35:30;100768.53;;;13.17;60.92
75759;BME280;64371;47.566;19.086;2023-06-04T04:38:36;100765.78;;;13.41;61.32
75759;BME280;64371;47.566;19.086;2023-06-04T04:41:39;100770.84;;;14.53;58.58
75759;BME280;64371;47.566;19.086;2023-06-04T04:44:42;100777.06;;;16.05;53.58
75759;BME280;64371;47.566;19.086;2023-06-04T04:47:44;100778.22;;;15.46;54.66
75759;BME280;64371;47.566;19.086;2023-06-04T04:50:47;100774.47;;;14.71;57.79
75759;BME280;64371;47.566;19.086;2023-06-04T04:53:49;100779.25;;;15.09;56.82
75759;BME280;64371;47.566;19.086;2023-06-04T04:56:52;100770.22;;;15.10;57.36
75759;BME280;64371;47.566;19.086;2023-06-04T05:00:16;100767.66;;;16.30;53.67
75759;BME280;64371;47.566;19.086;2023-06-04T05:03:22;100768.22;;;18.00;49.20
75759;BME280;64371;47.566;19.086;2023-06-04T05:06:25;100773.84;;;18.62;46.36
75759;BME280;64371;47.566;19.086;2023-06-04T05:09:27;100776.84;;;18.60;46.43
75759;BME280;64371;47.566;19.086;2023-06-04T05:12:30;100778.28;;;17.51;47.45
75759;BME280;64371;47.566;19.086;2023-06-04T05:15:35;100766.19;;;16.54;50.62
75759;BME280;64371;47.566;19.086;2023-06-04T05:18:38;100759.72;;;16.08;51.57
75759;BME280;64371;47.566;19.086;2023-06-04T05:21:51;100772.47;;;16.28;50.56
75759;BME280;64371;47.566;19.086;2023-06-04T05:24:53;100777.28;;;16.17;51.29
75759;BME280;64371;47.566;19.086;2023-06-04T05:27:56;100783.31;;;16.01;52.16
75759;BME280;64371;47.566;19.086;2023-06-04T05:30:59;100787.72;;;16.05;52.93
75759;BME280;64371;47.566;19.086;2023-06-04T05:34:06;100772.47;;;15.75;53.93
75759;BME280;64371;47.566;19.086;2023-06-04T05:37:12;100783.31;;;15.78;54.38
75759;BME280;64371;47.566;19.086;2023-06-04T05:40:15;100787.53;;;15.57;54.05
75759;BME280;64371;47.566;19.086;2023-06-04T05:43:18;100792.97;;;15.52;55.43
75759;BME280;64371;47.566;19.086;2023-06-04T05:46:21;100793.44;;;15.54;55.96
75759;BME280;64371;47.566;19.086;2023-06-04T05:49:24;100794.78;;;15.65;55.58
75759;BME280;64371;47.566;19.086;2023-06-04T05:52:31;100783.94;;;16.06;55.05
75759;BME280;64371;47.566;19.086;2023-06-04T05:55:33;100791.63;;;16.38;52.20
75759;BME280;64371;47.566;19.086;2023-06-04T05:58:36;100791.94;;;16.59;51.94
75759;BME280;64371;47.566;19.086;2023-06-04T06:01:40;100795.50;;;17.02;50.38
75759;BME280;64371;47.566;19.086;2023-06-04T06:04:44;100791.13;;;18.55;46.40
75759;BME280;64371;47.566;19.086;2023-06-04T06:07:47;100796.81;;;18.45;45.43
75759;BME280;64371;47.566;19.086;2023-06-04T06:10:49;100797.78;;;18.32;45.86
75759;BME280;64371;47.566;19.086;2023-06-04T06:13:52;100794.16;;;17.56;46.98
75759;BME280;64371;47.566;19.086;2023-06-04T06:16:55;100806.06;;;17.59;46.70
75759;BME280;64371;47.566;19.086;2023-06-04T06:19:58;100801.31;;;19.82;40.31
75759;BME280;64371;47.566;19.086;2023-06-04T06:23:07;100803.53;;;20.70;38.21
75759;BME280;64371;47.566;19.086;2023-06-04T06:26:12;100794.19;;;21.96;34.38
75759;BME280;64371;47.566;19.086;2023-06-04T06:29:22;100804.03;;;21.64;34.30
75759;BME280;64371;47.566;19.086;2023-06-04T06:32:26;100797.25;;;20.54;35.92
75759;BME280;64371;47.566;19.086;2023-06-04T06:35:29;100804.88;;;20.19;36.72
75759;BME280;64371;47.566;19.086;2023-06-04T06:38:32;100797.97;;;21.39;35.52
75759;BME280;64371;47.566;19.086;2023-06-04T06:41:34;100803.72;;;21.13;35.87
75759;BME280;64371;47.566;19.086;2023-06-04T06:44:38;100801.03;;;21.26;35.24
75759;BME280;64371;47.566;19.086;2023-06-04T06:47:40;100803.84;;;21.05;35.13
75759;BME280;64371;47.566;19.086;2023-06-04T06:50:42;100806.28;;;20.74;36.21
75759;BME280;64371;47.566;19.086;2023-06-04T06:53:45;100806.81;;;21.28;35.19
75759;BME280;64371;47.566;19.086;2023-06-04T06:56:48;100817.78;;;20.74;36.02
75759;BME280;64371;47.566;19.086;2023-06-04T06:59:52;100816.91;;;20.46;37.10
75759;BME280;64371;47.566;19.086;2023-06-04T07:02:56;100828.75;;;19.92;37.28
75759;BME280;64371;47.566;19.086;2023-06-04T07:05:58;100829.00;;;19.16;39.35
75759;BME280;64371;47.566;19.086;2023-06-04T07:09:01;100832.63;;;19.20;41.64
75759;BME280;64371;47.566;19.086;2023-06-04T07:12:03;100830.22;;;19.27;41.43
75759;BME280;64371;47.566;19.086;2023-06-04T07:15:06;100831.59;;;19.04;40.80
75759;BME280;64371;47.566;19.086;2023-06-04T07:18:10;100828.53;;;18.93;40.60
75759;BME280;64371;47.566;19.086;2023-06-04T07:21:12;100827.69;;;18.00;42.05
75759;BME280;64371;47.566;19.086;2023-06-04T07:24:15;100829.94;;;18.44;41.93
75759;BME280;64371;47.566;19.086;2023-06-04T07:27:18;100840.53;;;18.79;41.40
75759;BME280;64371;47.566;19.086;2023-06-04T07:30:21;100837.88;;;19.29;40.31
75759;BME280;64371;47.566;19.086;2023-06-04T07:33:23;100828.16;;;20.07;38.50
75759;BME280;64371;47.566;19.086;2023-06-04T07:36:28;100827.72;;;20.74;37.39
75759;BME280;64371;47.566;19.086;2023-06-04T07:39:31;100837.22;;;21.71;35.50
75759;BME280;64371;47.566;19.086;2023-06-04T07:42:33;100837.03;;;22.35;33.76
75759;BME280;64371;47.566;19.086;2023-06-04T07:45:35;100833.75;;;22.58;33.63
75759;BME280;64371;47.566;19.086;2023-06-04T07:48:38;100835.09;;;23.49;30.95
75759;BME280;64371;47.566;19.086;2023-06-04T07:51:40;100840.03;;;24.23;30.25
75759;BME280;64371;47.566;19.086;2023-06-04T07:54:42;100838.88;;;23.29;31.43
75759;BME280;64371;47.566;19.086;2023-06-04T07:57:45;100838.19;;;22.81;31.76
75759;BME280;64371;47.566;19.086;2023-06-04T08:00:47;100842.53;;;23.36;30.56
75759;BME280;64371;47.566;19.086;2023-06-04T08:03:50;100844.13;;;25.38;28.42
75759;BME280;64371;47.566;19.086;2023-06-04T08:06:52;100839.66;;;25.82;27.61
75759;BME280;64371;47.566;19.086;2023-06-04T08:09:55;100843.34;;;25.37;28.17
75759;BME280;64371;47.566;19.086;2023-06-04T08:12:58;100848.47;;;24.22;30.08
75759;BME280;64371;47.566;19.086;2023-06-04T08:16:00;100848.91;;;23.47;31.33
75759;BME280;64371;47.566;19.086;2023-06-04T08:19:03;100849.78;;;23.70;30.40
75759;BME280;64371;47.566;19.086;2023-06-04T08:22:05;100844.03;;;23.53;30.21
75759;BME280;64371;47.566;19.086;2023-06-04T08:25:10;100832.91;;;21.82;33.37
75759;BME280;64371;47.566;19.086;2023-06-04T08:28:13;100844.56;;;23.43;31.00
75759;BME280;64371;47.566;19.086;2023-06-04T08:31:17;100847.00;;;23.48;29.01
75759;BME280;64371;47.566;19.086;2023-06-04T08:34:20;100846.81;;;22.28;31.22
75759;BME280;64371;47.566;19.086;2023-06-04T08:37:23;100847.44;;;22.53;30.95
75759;BME280;64371;47.566;19.086;2023-06-04T08:40:26;100851.38;;;22.71;32.32
75759;BME280;64371;47.566;19.086;2023-06-04T08:43:29;100839.53;;;22.28;31.62
75759;BME280;64371;47.566;19.086;2023-06-04T08:46:32;100832.16;;;21.42;32.41
75759;BME280;64371;47.566;19.086;2023-06-04T08:49:35;100832.81;;;21.91;32.06
75759;BME280;64371;47.566;19.086;2023-06-04T08:52:38;100842.03;;;22.65;30.73
75759;BME280;64371;47.566;19.086;2023-06-04T08:55:43;100833.84;;;22.92;30.64
75759;BME280;64371;47.566;19.086;2023-06-04T08:58:46;100835.56;;;23.00;30.41
75759;BME280;64371;47.566;19.086;2023-06-04T09:01:55;100838.00;;;23.05;31.50
75759;BME280;64371;47.566;19.086;2023-06-04T09:04:58;100834.69;;;22.96;30.81
75759;BME280;64371;47.566;19.086;2023-06-04T09:08:01;100839.25;;;22.77;30.95
75759;BME280;64371;47.566;19.086;2023-06-04T09:11:08;100834.63;;;22.93;31.09
75759;BME280;64371;47.566;19.086;2023-06-04T09:14:14;100830.66;;;23.22;31.02
75759;BME280;64371;47.566;19.086;2023-06-04T09:17:23;100830.59;;;22.24;31.28
75759;BME280;64371;47.566;19.086;2023-06-04T09:20:27;100834.72;;;21.51;33.52
75759;BME280;64371;47.566;19.086;2023-06-04T09:23:30;100836.53;;;21.87;32.38
75759;BME280;64371;47.566;19.086;2023-06-04T09:26:32;100843.03;;;22.44;31.79
75759;BME280;64371;47.566;19.086;2023-06-04T09:29:35;100839.84;;;22.70;30.81
75759;BME280;64371;47.566;19.086;2023-06-04T09:32:38;100832.81;;;22.50;30.65
75759;BME280;64371;47.566;19.086;2023-06-04T09:35:40;100841.03;;;22.57;30.70
75759;BME280;64371;47.566;19.086;2023-06-04T09:38:43;100842.25;;;22.44;30.28
75759;BME280;64371;47.566;19.086;2023-06-04T09:42:02;100844.56;;;21.87;31.48
75759;BME280;64371;47.566;19.086;2023-06-04T09:45:05;100842.31;;;22.94;30.44
75759;BME280;64371;47.566;19.086;2023-06-04T09:48:07;100839.53;;;23.06;29.17
75759;BME280;64371;47.566;19.086;2023-06-04T09:51:15;100847.22;;;23.24;29.23
75759;BME280;64371;47.566;19.086;2023-06-04T09:54:20;100832.16;;;23.03;29.01
75759;BME280;64371;47.566;19.086;2023-06-04T09:57:23;100830.03;;;22.46;29.50
75759;BME280;64371;47.566;19.086;2023-06-04T10:00:26;100825.63;;;22.70;29.37
75759;BME280;64371;47.566;19.086;2023-06-04T10:03:34;100831.56;;;22.94;29.79
75759;BME280;64371;47.566;19.086;2023-06-04T10:06:38;100822.50;;;22.52;30.04
75759;BME280;64371;47.566;19.086;2023-06-04T10:09:43;100834.88;;;22.72;29.67
75759;BME280;64371;47.566;19.086;2023-06-04T10:12:54;100831.00;;;22.70;29.57
75759;BME280;64371;47.566;19.086;2023-06-04T10:16:03;100843.84;;;23.11;29.29
75759;BME280;64371;47.566;19.086;2023-06-04T10:19:07;100841.97;;;23.46;29.55
75759;BME280;64371;47.566;19.086;2023-06-04T10:22:10;100840.56;;;23.71;29.69
75759;BME280;64371;47.566;19.086;2023-06-04T10:25:13;100833.53;;;23.48;30.60
75759;BME280;64371;47.566;19.086;2023-06-04T10:28:21;100837.47;;;23.35;31.07
75759;BME280;64371;47.566;19.086;2023-06-04T10:31:24;100836.94;;;23.10;31.08
75759;BME280;64371;47.566;19.086;2023-06-04T10:34:29;100832.88;;;22.85;31.38
75759;BME280;64371;47.566;19.086;2023-06-04T10:37:32;100842.19;;;22.72;31.96
75759;BME280;64371;47.566;19.086;2023-06-04T10:40:35;100837.31;;;22.93;31.18
75759;BME280;64371;47.566;19.086;2023-06-04T10:43:38;100836.78;;;23.38;31.10
75759;BME280;64371;47.566;19.086;2023-06-04T10:46:41;100845.78;;;23.84;30.60
75759;BME280;64371;47.566;19.086;2023-06-04T10:49:44;100842.25;;;23.41;31.09
75759;BME280;64371;47.566;19.086;2023-06-04T10:52:53;100833.38;;;24.40;30.11
75759;BME280;64371;47.566;19.086;2023-06-04T10:55:58;100831.34;;;24.11;30.03
75759;BME280;64371;47.566;19.086;2023-06-04T10:59:12;100821.72;;;23.91;29.85
75759;BME280;64371;47.566;19.086;2023-06-04T11:02:14;100831.59;;;24.06;29.36
75759;BME280;64371;47.566;19.086;2023-06-04T11:05:18;100831.50;;;23.80;30.00
75759;BME280;64371;47.566;19.086;2023-06-04T11:08:28;100830.97;;;23.74;29.67
75759;BME280;64371;47.566;19.086;2023-06-04T11:11:31;100836.91;;;24.21;29.85
75759;BME280;64371;47.566;19.086;2023-06-04T11:14:34;100826.25;;;24.28;29.53
75759;BME280;64371;47.566;19.086;2023-06-04T11:17:36;100826.50;;;24.01;29.83
75759;BME280;64371;47.566;19.086;2023-06-04T11:20:39;100833.34;;;23.75;30.25
75759;BME280;64371;47.566;19.086;2023-06-04T11:23:42;100826.94;;;23.84;30.42
75759;BME280;64371;47.566;19.086;2023-06-04T11:26:44;100829.88;;;23.75;30.58
75759;BME280;64371;47.566;19.086;2023-06-04T11:29:58;100824.78;;;24.31;29.67
75759;BME280;64371;47.566;19.086;2023-06-04T11:33:04;100816.53;;;24.47;29.11
75759;BME280;64371;47.566;19.086;2023-06-04T11:36:07;100817.81;;;23.88;30.46
75759;BME280;64371;47.566;19.086;2023-06-04T11:39:09;100823.56;;;24.28;29.77
75759;BME280;64371;47.566;19.086;2023-06-04T11:42:12;100820.69;;;24.40;29.72
75759;BME280;64371;47.566;19.086;2023-06-04T11:45:17;100828.06;;;24.92;29.13
75759;BME280;64371;47.566;19.086;2023-06-04T11:48:20;100819.00;;;24.78;29.29
75759;BME280;64371;47.566;19.086;2023-06-04T11:51:23;100829.69;;;24.48;29.30
75759;BME280;64371;47.566;19.086;2023-06-04T11:54:25;100833.06;;;24.22;30.36
75759;BME280;64371;47.566;19.086;2023-06-04T11:57:29;100821.81;;;24.39;29.46
75759;BME280;64371;47.566;19.086;2023-06-04T12:00:32;100823.00;;;24.42;29.27
75759;BME280;64371;47.566;19.086;2023-06-04T12:03:39;100829.00;;;24.32;29.76
75759;BME280;64371;47.566;19.086;2023-06-04T12:06:54;100835.59;;;24.12;30.28
75759;BME280;64371;47.566;19.086;2023-06-04T12:10:05;100830.41;;;23.84;31.05
75759;BME280;64371;47.566;19.086;2023-06-04T12:13:09;100832.81;;;23.89;31.10
75759;BME280;64371;47.566;19.086;2023-06-04T12:16:14;100832.78;;;23.86;30.89
75759;BME280;64371;47.566;19.086;2023-06-04T12:19:17;100826.75;;;23.73;31.24
75759;BME280;64371;47.566;19.086;2023-06-04T12:22:19;100823.84;;;23.43;31.31
75759;BME280;64371;47.566;19.086;2023-06-04T12:25:26;100831.28;;;23.15;32.06
75759;BME280;64371;47.566;19.086;2023-06-04T12:28:29;100832.88;;;23.35;32.02
75759;BME280;64371;47.566;19.086;2023-06-04T12:31:31;100832.38;;;23.30;32.09
75759;BME280;64371;47.566;19.086;2023-06-04T12:34:34;100832.28;;;23.42;32.01
75759;BME280;64371;47.566;19.086;2023-06-04T12:37:37;100830.09;;;22.97;31.96
75759;BME280;64371;47.566;19.086;2023-06-04T12:40:39;100832.66;;;23.25;31.71
75759;BME280;64371;47.566;19.086;2023-06-04T12:43:42;100834.34;;;23.33;32.13
75759;BME280;64371;47.566;19.086;2023-06-04T12:46:44;100831.84;;;23.59;31.33
75759;BME280;64371;47.566;19.086;2023-06-04T12:49:47;100827.97;;;23.75;31.43
75759;BME280;64371;47.566;19.086;2023-06-04T12:52:49;100816.03;;;23.38;31.79
75759;BME280;64371;47.566;19.086;2023-06-04T12:55:52;100817.06;;;23.68;31.26
75759;BME280;64371;47.566;19.086;2023-06-04T12:58:54;100806.47;;;23.60;31.14
75759;BME280;64371;47.566;19.086;2023-06-04T13:01:56;100804.88;;;23.21;32.02
75759;BME280;64371;47.566;19.086;2023-06-04T13:04:59;100807.91;;;22.84;32.24
75759;BME280;64371;47.566;19.086;2023-06-04T13:08:01;100813.69;;;23.02;32.59
75759;BME280;64371;47.566;19.086;2023-06-04T13:11:04;100821.09;;;23.24;32.38
75759;BME280;64371;47.566;19.086;2023-06-04T13:14:08;100815.88;;;23.31;32.09
75759;BME280;64371;47.566;19.086;2023-06-04T13:17:11;100812.94;;;23.55;31.58
75759;BME280;64371;47.566;19.086;2023-06-04T13:20:24;100814.38;;;23.34;31.63
75759;BME280;64371;47.566;19.086;2023-06-04T13:23:26;100798.13;;;23.46;31.49
75759;BME280;64371;47.566;19.086;2023-06-04T13:26:48;100802.78;;;23.30;31.92
75759;BME280;64371;47.566;19.086;2023-06-04T13:29:50;100793.88;;;23.45;31.81
75759;BME280;64371;47.566;19.086;2023-06-04T13:32:53;100791.97;;;24.06;31.06
75759;BME280;64371;47.566;19.086;2023-06-04T13:35:57;100788.41;;;24.21;31.59
75759;BME280;64371;47.566;19.086;2023-06-04T13:38:59;100787.75;;;24.28;30.87
75759;BME280;64371;47.566;19.086;2023-06-04T13:42:01;100791.06;;;23.99;30.71
75759;BME280;64371;47.566;19.086;2023-06-04T13:45:04;100781.81;;;23.77;31.56
75759;BME280;64371;47.566;19.086;2023-06-04T13:48:06;100793.63;;;23.92;31.40
75759;BME280;64371;47.566;19.086;2023-06-04T13:51:09;100786.78;;;23.75;31.59
75759;BME280;64371;47.566;19.086;2023-06-04T13:54:12;100787.75;;;23.86;31.38
75759;BME280;64371;47.566;19.086;2023-06-04T13:57:14;100790.22;;;23.95;31.38
75759;BME280;64371;47.566;19.086;2023-06-04T14:00:18;100783.47;;;24.04;31.19
75759;BME280;64371;47.566;19.086;2023-06-04T14:03:20;100779.50;;;23.56;31.85
75759;BME280;64371;47.566;19.086;2023-06-04T14:06:23;100778.47;;;23.07;32.23
75759;BME280;64371;47.566;19.086;2023-06-04T14:09:25;100773.22;;;23.14;32.62
75759;BME280;64371;47.566;19.086;2023-06-04T14:12:28;100769.03;;;23.51;32.58
75759;BME280;64371;47.566;19.086;2023-06-04T14:15:30;100769.94;;;23.78;31.71
75759;BME280;64371;47.566;19.086;2023-06-04T14:18:32;100761.28;;;23.69;31.67
75759;BME280;64371;47.566;19.086;2023-06-04T14:21:35;100768.88;;;23.25;33.00
75759;BME280;64371;47.566;19.086;2023-06-04T14:24:40;100766.88;;;22.87;33.44
75759;BME280;64371;47.566;19.086;2023-06-04T14:27:42;100772.22;;;22.68;33.71
75759;BME280;64371;47.566;19.086;2023-06-04T14:30:46;100771.78;;;22.66;34.12
75759;BME280;64371;47.566;19.086;2023-06-04T14:33:49;100769.06;;;22.51;36.20
75759;BME280;64371;47.566;19.086;2023-06-04T14:36:51;100774.53;;;22.38;36.54
75759;BME280;64371;47.566;19.086;2023-06-04T14:39:53;100769.19;;;22.23;37.11
75759;BME280;64371;47.566;19.086;2023-06-04T14:42:56;100767.69;;;22.10;37.59
75759;BME280;64371;47.566;19.086;2023-06-04T14:45:59;100759.22;;;22.08;38.26
75759;BME280;64371;47.566;19.086;2023-06-04T14:49:02;100766.47;;;22.07;38.58
75759;BME280;64371;47.566;19.086;2023-06-04T14:52:04;100759.28;;;21.96;39.27
75759;BME280;64371;47.566;19.086;2023-06-04T14:55:07;100754.03;;;21.71;40.71
75759;BME280;64371;47.566;19.086;2023-06-04T14:58:10;100759.88;;;21.61;41.42
75759;BME280;64371;47.566;19.086;2023-06-04T15:01:13;100760.16;;;21.44;41.99
75759;BME280;64371;47.566;19.086;2023-06-04T15:04:15;100770.69;;;21.37;43.06
75759;BME280;64371;47.566;19.086;2023-06-04T15:07:18;100766.50;;;21.24;43.83
75759;BME280;64371;47.566;19.086;2023-06-04T15:10:21;100751.31;;;21.04;43.54
75759;BME280;64371;47.566;19.086;2023-06-04T15:13:23;100753.81;;;20.97;43.85
75759;BME280;64371;47.566;19.086;2023-06-04T15:16:25;100747.09;;;20.91;44.55
75759;BME280;64371;47.566;19.086;2023-06-04T15:19:28;100748.25;;;20.78;45.71
75759;BME280;64371;47.566;19.086;2023-06-04T15:22:30;100739.53;;;20.69;47.09
75759;BME280;64371;47.566;19.086;2023-06-04T15:25:33;100736.78;;;20.53;48.39
75759;BME280;64371;47.566;19.086;2023-06-04T15:28:35;100736.09;;;20.56;49.04
75759;BME280;64371;47.566;19.086;2023-06-04T15:31:37;100738.22;;;20.63;49.74
75759;BME280;64371;47.566;19.086;2023-06-04T15:34:40;100735.09;;;20.48;50.44
75759;BME280;64371;47.566;19.086;2023-06-04T15:37:43;100734.19;;;20.57;50.85
75759;BME280;64371;47.566;19.086;2023-06-04T15:40:45;100732.63;;;20.43;51.45
75759;BME280;64371;47.566;19.086;2023-06-04T15:43:48;100733.66;;;20.39;52.39
75759;BME280;64371;47.566;19.086;2023-06-04T15:46:53;100731.28;;;20.25;52.87
75759;BME280;64371;47.566;19.086;2023-06-04T15:50:07;100728.28;;;20.39;52.88
75759;BME280;64371;47.566;19.086;2023-06-04T15:53:09;100730.97;;;20.39;53.21
75759;BME280;64371;47.566;19.086;2023-06-04T15:56:12;100726.94;;;20.33;53.57